Shefford, United Kingdom
Current Conditions -  °F | °C
As of 3:50 AM on Friday 31 Oct 2014 (Local Time) from EGGW Reporting Station
Haze Haze  
Wind Chill: 55°   Ceiling: 400
Heat Index: 55°   Visibility: 1.7mi
Dew Point: 55°   Wind: 7mph
Humidity: 100%   Direction: 180°S
Pressure: 30.03"   Gusts: NA
Location:  52.04°N, 0.33°W
Report Text: EGGW 310350Z 18006KT 150V210 2800 BR OVC004 13/13 Q1017
Loading
Personal Weather Stations






























Interactive Weather Map
Tropical Storm Tracking
New forecast layout! Learn more

10-Day Weather Forecast

Advertisements
Track Severe Weather on mobile